sensor_id;sensor_type;location;lat;lon;timestamp;P1;durP1;ratioP1;P2;durP2;ratioP2
1591;SDS011;789;51.612;7.510;2023-02-22T00:01:09;65.23;;;32.40;;
1591;SDS011;789;51.612;7.510;2023-02-22T00:03:49;58.40;;;30.30;;
1591;SDS011;789;51.612;7.510;2023-02-22T00:06:17;56.50;;;28.50;;
1591;SDS011;789;51.612;7.510;2023-02-22T00:08:45;56.27;;;29.50;;
1591;SDS011;789;51.612;7.510;2023-02-22T00:11:13;57.13;;;29.50;;
1591;SDS011;789;51.612;7.510;2023-02-22T00:13:42;75.67;;;33.57;;
1591;SDS011;789;51.612;7.510;2023-02-22T00:16:12;68.63;;;32.80;;
1591;SDS011;789;51.612;7.510;2023-02-22T00:18:40;73.30;;;32.60;;
1591;SDS011;789;51.612;7.510;2023-02-22T00:21:08;65.60;;;32.60;;
1591;SDS011;789;51.612;7.510;2023-02-22T00:23:36;69.17;;;33.63;;
1591;SDS011;789;51.612;7.510;2023-02-22T00:26:07;68.23;;;32.37;;
1591;SDS011;789;51.612;7.510;2023-02-22T00:28:34;72.30;;;31.80;;
1591;SDS011;789;51.612;7.510;2023-02-22T00:31:03;67.03;;;33.33;;
1591;SDS011;789;51.612;7.510;2023-02-22T00:33:31;64.43;;;33.67;;
1591;SDS011;789;51.612;7.510;2023-02-22T00:35:58;70.63;;;34.03;;
1591;SDS011;789;51.612;7.510;2023-02-22T00:38:24;64.13;;;31.20;;
1591;SDS011;789;51.612;7.510;2023-02-22T00:40:51;64.50;;;32.73;;
1591;SDS011;789;51.612;7.510;2023-02-22T00:43:19;62.33;;;30.37;;
1591;SDS011;789;51.612;7.510;2023-02-22T00:45:46;60.90;;;31.60;;
1591;SDS011;789;51.612;7.510;2023-02-22T00:48:15;55.70;;;29.33;;
1591;SDS011;789;51.612;7.510;2023-02-22T00:50:42;68.97;;;32.03;;
1591;SDS011;789;51.612;7.510;2023-02-22T00:53:09;59.70;;;31.50;;
1591;SDS011;789;51.612;7.510;2023-02-22T00:55:36;57.27;;;29.47;;
1591;SDS011;789;51.612;7.510;2023-02-22T00:58:04;64.50;;;30.97;;
1591;SDS011;789;51.612;7.510;2023-02-22T01:00:32;57.83;;;28.37;;
1591;SDS011;789;51.612;7.510;2023-02-22T01:03:01;68.57;;;31.80;;
1591;SDS011;789;51.612;7.510;2023-02-22T01:05:30;62.17;;;29.97;;
1591;SDS011;789;51.612;7.510;2023-02-22T01:07:58;66.63;;;32.23;;
1591;SDS011;789;51.612;7.510;2023-02-22T01:10:27;65.80;;;29.80;;
1591;SDS011;789;51.612;7.510;2023-02-22T01:12:56;59.30;;;30.63;;
1591;SDS011;789;51.612;7.510;2023-02-22T01:15:24;70.03;;;32.23;;
1591;SDS011;789;51.612;7.510;2023-02-22T01:17:53;74.53;;;33.77;;
1591;SDS011;789;51.612;7.510;2023-02-22T01:20:20;82.97;;;34.60;;
1591;SDS011;789;51.612;7.510;2023-02-22T01:22:51;76.27;;;33.97;;
1591;SDS011;789;51.612;7.510;2023-02-22T01:25:21;86.77;;;36.30;;
1591;SDS011;789;51.612;7.510;2023-02-22T01:27:49;90.50;;;35.40;;
1591;SDS011;789;51.612;7.510;2023-02-22T01:30:19;85.30;;;37.30;;
1591;SDS011;789;51.612;7.510;2023-02-22T01:32:47;98.07;;;38.00;;
1591;SDS011;789;51.612;7.510;2023-02-22T01:35:16;108.57;;;38.27;;
1591;SDS011;789;51.612;7.510;2023-02-22T01:37:45;103.50;;;36.30;;
1591;SDS011;789;51.612;7.510;2023-02-22T01:40:16;103.17;;;38.60;;
1591;SDS011;789;51.612;7.510;2023-02-22T01:42:46;105.53;;;37.70;;
1591;SDS011;789;51.612;7.510;2023-02-22T01:48:16;111.07;;;36.57;;
1591;SDS011;789;51.612;7.510;2023-02-22T01:50:48;115.03;;;36.30;;
1591;SDS011;789;51.612;7.510;2023-02-22T01:53:19;116.47;;;37.10;;
1591;SDS011;789;51.612;7.510;2023-02-22T01:55:53;99.53;;;34.30;;
1591;SDS011;789;51.612;7.510;2023-02-22T01:58:20;136.17;;;37.57;;
1591;SDS011;789;51.612;7.510;2023-02-22T02:00:50;124.30;;;35.07;;
1591;SDS011;789;51.612;7.510;2023-02-22T02:03:17;115.23;;;35.83;;
1591;SDS011;789;51.612;7.510;2023-02-22T02:05:47;108.83;;;34.43;;
1591;SDS011;789;51.612;7.510;2023-02-22T02:08:20;115.00;;;36.90;;
1591;SDS011;789;51.612;7.510;2023-02-22T02:10:55;131.17;;;36.53;;
1591;SDS011;789;51.612;7.510;2023-02-22T02:13:23;109.23;;;35.03;;
1591;SDS011;789;51.612;7.510;2023-02-22T02:15:52;94.00;;;32.70;;
1591;SDS011;789;51.612;7.510;2023-02-22T02:18:20;129.20;;;33.97;;
1591;SDS011;789;51.612;7.510;2023-02-22T02:20:50;105.67;;;35.30;;
1591;SDS011;789;51.612;7.510;2023-02-22T02:23:35;111.00;;;34.00;;
1591;SDS011;789;51.612;7.510;2023-02-22T02:26:31;103.33;;;31.57;;
1591;SDS011;789;51.612;7.510;2023-02-22T02:29:28;107.83;;;32.00;;
1591;SDS011;789;51.612;7.510;2023-02-22T02:32:21;102.10;;;32.78;;
1591;SDS011;789;51.612;7.510;2023-02-22T02:34:54;94.83;;;33.00;;
1591;SDS011;789;51.612;7.510;2023-02-22T02:37:31;118.33;;;35.20;;
1591;SDS011;789;51.612;7.510;2023-02-22T02:40:08;113.87;;;34.50;;
1591;SDS011;789;51.612;7.510;2023-02-22T02:42:45;117.73;;;33.50;;
1591;SDS011;789;51.612;7.510;2023-02-22T02:45:20;128.07;;;31.00;;
1591;SDS011;789;51.612;7.510;2023-02-22T02:47:54;186.70;;;35.00;;
1591;SDS011;789;51.612;7.510;2023-02-22T02:50:24;231.00;;;34.40;;
1591;SDS011;789;51.612;7.510;2023-02-22T02:52:54;194.13;;;32.90;;
1591;SDS011;789;51.612;7.510;2023-02-22T02:55:24;309.67;;;38.80;;
1591;SDS011;789;51.612;7.510;2023-02-22T02:57:54;97.37;;;32.00;;
1591;SDS011;789;51.612;7.510;2023-02-22T03:00:21;173.53;;;34.33;;
1591;SDS011;789;51.612;7.510;2023-02-22T03:02:59;159.33;;;31.40;;
1591;SDS011;789;51.612;7.510;2023-02-22T03:05:42;105.23;;;27.63;;
1591;SDS011;789;51.612;7.510;2023-02-22T03:08:24;184.47;;;31.87;;
1591;SDS011;789;51.612;7.510;2023-02-22T03:11:02;166.10;;;30.50;;
1591;SDS011;789;51.612;7.510;2023-02-22T03:13:41;125.27;;;28.57;;
1591;SDS011;789;51.612;7.510;2023-02-22T03:16:16;96.27;;;26.80;;
1591;SDS011;789;51.612;7.510;2023-02-22T03:18:50;155.73;;;29.23;;
1591;SDS011;789;51.612;7.510;2023-02-22T03:21:23;136.67;;;27.27;;
1591;SDS011;789;51.612;7.510;2023-02-22T03:23:58;110.67;;;25.93;;
1591;SDS011;789;51.612;7.510;2023-02-22T03:26:32;90.67;;;25.60;;
1591;SDS011;789;51.612;7.510;2023-02-22T03:29:02;184.20;;;27.67;;
1591;SDS011;789;51.612;7.510;2023-02-22T03:31:32;126.27;;;28.07;;
1591;SDS011;789;51.612;7.510;2023-02-22T03:34:05;85.17;;;25.70;;
1591;SDS011;789;51.612;7.510;2023-02-22T03:36:36;122.73;;;25.20;;
1591;SDS011;789;51.612;7.510;2023-02-22T03:39:07;96.40;;;23.33;;
1591;SDS011;789;51.612;7.510;2023-02-22T03:41:40;287.60;;;28.27;;
1591;SDS011;789;51.612;7.510;2023-02-22T03:44:16;96.53;;;22.33;;
1591;SDS011;789;51.612;7.510;2023-02-22T03:46:47;101.73;;;22.10;;
1591;SDS011;789;51.612;7.510;2023-02-22T03:49:18;112.83;;;21.83;;
1591;SDS011;789;51.612;7.510;2023-02-22T03:51:53;94.87;;;19.67;;
1591;SDS011;789;51.612;7.510;2023-02-22T03:54:20;63.53;;;19.63;;
1591;SDS011;789;51.612;7.510;2023-02-22T03:56:48;63.50;;;19.13;;
1591;SDS011;789;51.612;7.510;2023-02-22T03:59:19;58.65;;;17.85;;
1591;SDS011;789;51.612;7.510;2023-02-22T04:01:50;86.00;;;19.40;;
1591;SDS011;789;51.612;7.510;2023-02-22T04:04:18;87.73;;;18.97;;
1591;SDS011;789;51.612;7.510;2023-02-22T04:06:45;83.07;;;19.10;;
1591;SDS011;789;51.612;7.510;2023-02-22T04:09:13;65.83;;;17.93;;
1591;SDS011;789;51.612;7.510;2023-02-22T04:11:40;63.33;;;18.13;;
1591;SDS011;789;51.612;7.510;2023-02-22T04:14:07;59.50;;;17.00;;
1591;SDS011;789;51.612;7.510;2023-02-22T04:16:34;79.15;;;18.30;;
1591;SDS011;789;51.612;7.510;2023-02-22T04:19:01;59.73;;;19.97;;
1591;SDS011;789;51.612;7.510;2023-02-22T04:21:29;68.73;;;17.17;;
1591;SDS011;789;51.612;7.510;2023-02-22T04:23:56;58.30;;;16.43;;
1591;SDS011;789;51.612;7.510;2023-02-22T04:26:23;50.17;;;17.50;;
1591;SDS011;789;51.612;7.510;2023-02-22T04:28:50;35.20;;;15.43;;
1591;SDS011;789;51.612;7.510;2023-02-22T04:31:16;53.77;;;16.83;;
1591;SDS011;789;51.612;7.510;2023-02-22T04:33:43;59.60;;;16.97;;
1591;SDS011;789;51.612;7.510;2023-02-22T04:36:10;111.77;;;17.97;;
1591;SDS011;789;51.612;7.510;2023-02-22T04:38:38;46.40;;;18.30;;
1591;SDS011;789;51.612;7.510;2023-02-22T04:41:05;41.80;;;16.17;;
1591;SDS011;789;51.612;7.510;2023-02-22T04:43:32;49.70;;;15.70;;
1591;SDS011;789;51.612;7.510;2023-02-22T04:45:58;56.93;;;16.97;;
1591;SDS011;789;51.612;7.510;2023-02-22T04:48:25;54.97;;;17.27;;
1591;SDS011;789;51.612;7.510;2023-02-22T04:50:52;50.37;;;17.20;;
1591;SDS011;789;51.612;7.510;2023-02-22T04:53:19;52.13;;;16.23;;
1591;SDS011;789;51.612;7.510;2023-02-22T04:55:47;54.63;;;15.93;;
1591;SDS011;789;51.612;7.510;2023-02-22T04:58:13;42.63;;;15.10;;
1591;SDS011;789;51.612;7.510;2023-02-22T05:00:40;55.57;;;16.37;;
1591;SDS011;789;51.612;7.510;2023-02-22T05:03:07;30.90;;;15.03;;
1591;SDS011;789;51.612;7.510;2023-02-22T05:05:33;32.43;;;15.13;;
1591;SDS011;789;51.612;7.510;2023-02-22T05:08:00;82.00;;;15.67;;
1591;SDS011;789;51.612;7.510;2023-02-22T05:10:27;172.97;;;19.10;;
1591;SDS011;789;51.612;7.510;2023-02-22T05:12:55;135.35;;;17.85;;
1591;SDS011;789;51.612;7.510;2023-02-22T05:15:22;85.20;;;16.97;;
1591;SDS011;789;51.612;7.510;2023-02-22T05:17:49;85.77;;;17.50;;
1591;SDS011;789;51.612;7.510;2023-02-22T05:20:20;33.67;;;14.33;;
1591;SDS011;789;51.612;7.510;2023-02-22T05:22:48;23.50;;;14.03;;
1591;SDS011;789;51.612;7.510;2023-02-22T05:25:16;57.07;;;15.10;;
1591;SDS011;789;51.612;7.510;2023-02-22T05:27:44;28.60;;;13.53;;
1591;SDS011;789;51.612;7.510;2023-02-22T05:30:16;47.33;;;15.87;;
1591;SDS011;789;51.612;7.510;2023-02-22T05:32:43;42.03;;;13.70;;
1591;SDS011;789;51.612;7.510;2023-02-22T05:35:10;38.43;;;13.50;;
1591;SDS011;789;51.612;7.510;2023-02-22T05:37:37;29.57;;;13.23;;
1591;SDS011;789;51.612;7.510;2023-02-22T05:40:04;42.97;;;15.10;;
1591;SDS011;789;51.612;7.510;2023-02-22T05:42:31;58.90;;;16.20;;
1591;SDS011;789;51.612;7.510;2023-02-22T05:44:58;32.90;;;14.43;;
1591;SDS011;789;51.612;7.510;2023-02-22T05:47:26;46.47;;;16.60;;
1591;SDS011;789;51.612;7.510;2023-02-22T05:49:53;26.87;;;13.63;;
1591;SDS011;789;51.612;7.510;2023-02-22T05:52:20;42.57;;;14.93;;
1591;SDS011;789;51.612;7.510;2023-02-22T05:54:47;36.70;;;14.53;;
1591;SDS011;789;51.612;7.510;2023-02-22T05:57:13;47.47;;;15.70;;
1591;SDS011;789;51.612;7.510;2023-02-22T05:59:40;45.23;;;16.37;;
1591;SDS011;789;51.612;7.510;2023-02-22T06:02:07;31.03;;;15.07;;
1591;SDS011;789;51.612;7.510;2023-02-22T06:04:35;61.43;;;16.53;;
1591;SDS011;789;51.612;7.510;2023-02-22T06:07:01;55.50;;;16.73;;
1591;SDS011;789;51.612;7.510;2023-02-22T06:09:28;46.40;;;15.30;;
1591;SDS011;789;51.612;7.510;2023-02-22T06:11:55;181.83;;;22.30;;
1591;SDS011;789;51.612;7.510;2023-02-22T06:14:22;60.30;;;15.07;;
1591;SDS011;789;51.612;7.510;2023-02-22T06:16:51;36.97;;;15.83;;
1591;SDS011;789;51.612;7.510;2023-02-22T06:19:18;33.00;;;14.37;;
1591;SDS011;789;51.612;7.510;2023-02-22T06:21:49;34.90;;;14.10;;
1591;SDS011;789;51.612;7.510;2023-02-22T06:24:15;51.17;;;14.50;;
1591;SDS011;789;51.612;7.510;2023-02-22T06:26:42;32.43;;;13.93;;
1591;SDS011;789;51.612;7.510;2023-02-22T06:29:09;34.57;;;14.53;;
1591;SDS011;789;51.612;7.510;2023-02-22T06:31:36;44.47;;;15.17;;
1591;SDS011;789;51.612;7.510;2023-02-22T06:34:02;37.90;;;14.20;;
1591;SDS011;789;51.612;7.510;2023-02-22T06:36:29;51.70;;;16.40;;
1591;SDS011;789;51.612;7.510;2023-02-22T06:38:57;71.20;;;15.57;;
1591;SDS011;789;51.612;7.510;2023-02-22T06:41:24;40.80;;;13.40;;
1591;SDS011;789;51.612;7.510;2023-02-22T06:43:51;30.73;;;12.83;;
1591;SDS011;789;51.612;7.510;2023-02-22T06:46:18;23.10;;;10.40;;
1591;SDS011;789;51.612;7.510;2023-02-22T06:48:45;101.77;;;12.53;;
1591;SDS011;789;51.612;7.510;2023-02-22T06:51:12;49.83;;;10.17;;
1591;SDS011;789;51.612;7.510;2023-02-22T06:53:38;46.73;;;9.57;;
1591;SDS011;789;51.612;7.510;2023-02-22T06:56:06;42.50;;;10.23;;
1591;SDS011;789;51.612;7.510;2023-02-22T06:58:33;28.23;;;8.57;;
1591;SDS011;789;51.612;7.510;2023-02-22T07:01:00;55.80;;;11.30;;
1591;SDS011;789;51.612;7.510;2023-02-22T07:03:27;30.43;;;9.77;;
1591;SDS011;789;51.612;7.510;2023-02-22T07:05:54;19.00;;;8.93;;
1591;SDS011;789;51.612;7.510;2023-02-22T07:08:21;25.70;;;8.83;;
1591;SDS011;789;51.612;7.510;2023-02-22T07:10:47;19.70;;;8.57;;
1591;SDS011;789;51.612;7.510;2023-02-22T07:13:16;30.93;;;8.90;;
1591;SDS011;789;51.612;7.510;2023-02-22T07:15:43;23.95;;;8.40;;
1591;SDS011;789;51.612;7.510;2023-02-22T07:18:09;18.63;;;9.20;;
1591;SDS011;789;51.612;7.510;2023-02-22T07:20:38;27.50;;;11.53;;
1591;SDS011;789;51.612;7.510;2023-02-22T07:23:05;20.03;;;9.50;;
1591;SDS011;789;51.612;7.510;2023-02-22T07:25:31;28.10;;;10.47;;
1591;SDS011;789;51.612;7.510;2023-02-22T07:27:58;50.30;;;11.33;;
1591;SDS011;789;51.612;7.510;2023-02-22T07:30:27;35.27;;;11.30;;
1591;SDS011;789;51.612;7.510;2023-02-22T07:32:55;19.47;;;10.57;;
1591;SDS011;789;51.612;7.510;2023-02-22T07:35:24;33.43;;;10.63;;
1591;SDS011;789;51.612;7.510;2023-02-22T07:37:52;20.73;;;10.40;;
1591;SDS011;789;51.612;7.510;2023-02-22T07:40:19;15.80;;;9.67;;
1591;SDS011;789;51.612;7.510;2023-02-22T07:42:50;18.80;;;9.50;;
1591;SDS011;789;51.612;7.510;2023-02-22T07:45:22;21.67;;;10.47;;
1591;SDS011;789;51.612;7.510;2023-02-22T07:47:51;23.00;;;10.43;;
1591;SDS011;789;51.612;7.510;2023-02-22T07:50:18;23.60;;;10.70;;
1591;SDS011;789;51.612;7.510;2023-02-22T07:52:47;22.13;;;9.27;;
1591;SDS011;789;51.612;7.510;2023-02-22T07:55:15;17.00;;;11.00;;
1591;SDS011;789;51.612;7.510;2023-02-22T07:57:44;20.70;;;10.20;;
1591;SDS011;789;51.612;7.510;2023-02-22T08:00:12;21.33;;;9.50;;
1591;SDS011;789;51.612;7.510;2023-02-22T08:02:42;20.47;;;10.27;;
1591;SDS011;789;51.612;7.510;2023-02-22T08:05:10;19.83;;;11.20;;
1591;SDS011;789;51.612;7.510;2023-02-22T08:07:37;15.27;;;10.73;;
1591;SDS011;789;51.612;7.510;2023-02-22T08:10:04;16.90;;;10.60;;
1591;SDS011;789;51.612;7.510;2023-02-22T08:12:32;19.30;;;10.87;;
1591;SDS011;789;51.612;7.510;2023-02-22T08:15:00;27.00;;;12.67;;
1591;SDS011;789;51.612;7.510;2023-02-22T08:17:27;25.57;;;12.70;;
1591;SDS011;789;51.612;7.510;2023-02-22T08:19:53;21.40;;;11.80;;
1591;SDS011;789;51.612;7.510;2023-02-22T08:22:22;23.33;;;12.47;;
1591;SDS011;789;51.612;7.510;2023-02-22T08:24:49;21.20;;;11.83;;
1591;SDS011;789;51.612;7.510;2023-02-22T08:27:21;20.93;;;11.60;;
1591;SDS011;789;51.612;7.510;2023-02-22T08:29:49;19.17;;;11.63;;
1591;SDS011;789;51.612;7.510;2023-02-22T08:32:16;19.70;;;11.10;;
1591;SDS011;789;51.612;7.510;2023-02-22T08:34:43;20.90;;;11.43;;
1591;SDS011;789;51.612;7.510;2023-02-22T08:37:10;20.90;;;12.00;;
1591;SDS011;789;51.612;7.510;2023-02-22T08:39:38;16.50;;;11.43;;
1591;SDS011;789;51.612;7.510;2023-02-22T08:42:04;19.80;;;11.60;;
1591;SDS011;789;51.612;7.510;2023-02-22T08:44:33;20.70;;;12.60;;
1591;SDS011;789;51.612;7.510;2023-02-22T08:46:59;19.77;;;12.40;;
1591;SDS011;789;51.612;7.510;2023-02-22T08:49:26;20.53;;;11.50;;
1591;SDS011;789;51.612;7.510;2023-02-22T08:51:53;17.20;;;12.73;;
1591;SDS011;789;51.612;7.510;2023-02-22T08:54:20;16.60;;;12.30;;
1591;SDS011;789;51.612;7.510;2023-02-22T08:56:48;17.17;;;11.90;;
1591;SDS011;789;51.612;7.510;2023-02-22T08:59:14;19.70;;;13.33;;
1591;SDS011;789;51.612;7.510;2023-02-22T09:01:41;19.37;;;12.70;;
1591;SDS011;789;51.612;7.510;2023-02-22T09:04:08;23.20;;;12.27;;
1591;SDS011;789;51.612;7.510;2023-02-22T09:06:34;23.33;;;12.07;;
1591;SDS011;789;51.612;7.510;2023-02-22T09:09:01;16.90;;;12.40;;
1591;SDS011;789;51.612;7.510;2023-02-22T09:11:28;14.97;;;11.63;;
1591;SDS011;789;51.612;7.510;2023-02-22T09:13:56;16.00;;;11.13;;
1591;SDS011;789;51.612;7.510;2023-02-22T09:16:23;16.07;;;12.17;;
1591;SDS011;789;51.612;7.510;2023-02-22T09:18:49;14.40;;;11.73;;
1591;SDS011;789;51.612;7.510;2023-02-22T09:21:16;23.20;;;11.97;;
1591;SDS011;789;51.612;7.510;2023-02-22T09:23:45;19.27;;;11.40;;
1591;SDS011;789;51.612;7.510;2023-02-22T09:26:12;210.17;;;141.83;;
1591;SDS011;789;51.612;7.510;2023-02-22T09:28:40;33.17;;;15.10;;
1591;SDS011;789;51.612;7.510;2023-02-22T09:31:08;21.87;;;13.07;;
1591;SDS011;789;51.612;7.510;2023-02-22T09:33:35;27.70;;;13.67;;
1591;SDS011;789;51.612;7.510;2023-02-22T09:36:01;15.70;;;10.83;;
1591;SDS011;789;51.612;7.510;2023-02-22T09:38:28;17.23;;;12.20;;
1591;SDS011;789;51.612;7.510;2023-02-22T09:41:04;14.93;;;12.07;;
1591;SDS011;789;51.612;7.510;2023-02-22T09:43:36;14.53;;;11.80;;
1591;SDS011;789;51.612;7.510;2023-02-22T09:46:20;21.00;;;12.77;;
1591;SDS011;789;51.612;7.510;2023-02-22T09:48:52;15.87;;;11.17;;
1591;SDS011;789;51.612;7.510;2023-02-22T09:51:24;13.60;;;11.50;;
1591;SDS011;789;51.612;7.510;2023-02-22T09:53:54;12.87;;;11.67;;
1591;SDS011;789;51.612;7.510;2023-02-22T09:56:25;20.20;;;12.47;;
1591;SDS011;789;51.612;7.510;2023-02-22T09:58:54;20.77;;;12.27;;
1591;SDS011;789;51.612;7.510;2023-02-22T10:01:25;13.20;;;11.77;;
1591;SDS011;789;51.612;7.510;2023-02-22T10:03:55;14.50;;;11.83;;
1591;SDS011;789;51.612;7.510;2023-02-22T10:06:26;15.83;;;12.40;;
1591;SDS011;789;51.612;7.510;2023-02-22T10:08:54;15.17;;;11.80;;
1591;SDS011;789;51.612;7.510;2023-02-22T10:11:35;15.60;;;12.53;;
1591;SDS011;789;51.612;7.510;2023-02-22T10:14:18;21.53;;;12.60;;
1591;SDS011;789;51.612;7.510;2023-02-22T10:17:04;14.63;;;11.80;;
1591;SDS011;789;51.612;7.510;2023-02-22T10:19:43;13.73;;;12.00;;
1591;SDS011;789;51.612;7.510;2023-02-22T10:22:20;20.20;;;12.40;;
1591;SDS011;789;51.612;7.510;2023-02-22T10:25:05;15.27;;;13.17;;
1591;SDS011;789;51.612;7.510;2023-02-22T10:27:39;15.87;;;13.07;;
1591;SDS011;789;51.612;7.510;2023-02-22T10:30:13;14.30;;;11.70;;
1591;SDS011;789;51.612;7.510;2023-02-22T10:32:46;13.60;;;12.07;;
1591;SDS011;789;51.612;7.510;2023-02-22T10:35:20;20.40;;;12.80;;
1591;SDS011;789;51.612;7.510;2023-02-22T10:37:49;12.87;;;11.57;;
1591;SDS011;789;51.612;7.510;2023-02-22T10:40:22;13.33;;;11.93;;
1591;SDS011;789;51.612;7.510;2023-02-22T10:42:56;12.83;;;11.53;;
1591;SDS011;789;51.612;7.510;2023-02-22T10:45:26;29.60;;;14.30;;
1591;SDS011;789;51.612;7.510;2023-02-22T10:47:57;13.80;;;11.43;;
1591;SDS011;789;51.612;7.510;2023-02-22T10:50:32;13.10;;;11.17;;
1591;SDS011;789;51.612;7.510;2023-02-22T10:53:01;23.70;;;12.93;;
1591;SDS011;789;51.612;7.510;2023-02-22T10:55:28;16.70;;;11.83;;
1591;SDS011;789;51.612;7.510;2023-02-22T10:57:58;13.20;;;11.87;;
1591;SDS011;789;51.612;7.510;2023-02-22T11:00:29;21.87;;;12.47;;
1591;SDS011;789;51.612;7.510;2023-02-22T11:03:03;26.77;;;12.10;;
1591;SDS011;789;51.612;7.510;2023-02-22T11:05:39;17.30;;;12.43;;
1591;SDS011;789;51.612;7.510;2023-02-22T11:08:21;17.27;;;12.27;;
1591;SDS011;789;51.612;7.510;2023-02-22T11:10:50;18.73;;;12.40;;
1591;SDS011;789;51.612;7.510;2023-02-22T11:13:22;20.20;;;12.30;;
1591;SDS011;789;51.612;7.510;2023-02-22T11:15:51;21.30;;;12.57;;
1591;SDS011;789;51.612;7.510;2023-02-22T11:18:23;23.90;;;13.10;;
1591;SDS011;789;51.612;7.510;2023-02-22T11:20:58;18.60;;;12.23;;
1591;SDS011;789;51.612;7.510;2023-02-22T11:23:26;13.33;;;11.73;;
1591;SDS011;789;51.612;7.510;2023-02-22T11:25:59;15.13;;;13.43;;
1591;SDS011;789;51.612;7.510;2023-02-22T11:28:30;18.13;;;12.67;;
1591;SDS011;789;51.612;7.510;2023-02-22T11:30:58;17.50;;;13.30;;
1591;SDS011;789;51.612;7.510;2023-02-22T11:33:38;15.30;;;12.73;;
1591;SDS011;789;51.612;7.510;2023-02-22T11:36:05;18.60;;;12.57;;
1591;SDS011;789;51.612;7.510;2023-02-22T11:38:34;17.80;;;12.80;;
1591;SDS011;789;51.612;7.510;2023-02-22T11:41:12;22.13;;;12.97;;
1591;SDS011;789;51.612;7.510;2023-02-22T11:43:41;21.20;;;12.37;;
1591;SDS011;789;51.612;7.510;2023-02-22T11:46:10;23.40;;;11.90;;
1591;SDS011;789;51.612;7.510;2023-02-22T11:48:44;15.87;;;11.53;;
1591;SDS011;789;51.612;7.510;2023-02-22T11:51:24;15.70;;;11.83;;
1591;SDS011;789;51.612;7.510;2023-02-22T11:54:03;16.23;;;11.10;;
1591;SDS011;789;51.612;7.510;2023-02-22T11:56:54;14.80;;;11.80;;
1591;SDS011;789;51.612;7.510;2023-02-22T11:59:33;14.30;;;11.63;;
1591;SDS011;789;51.612;7.510;2023-02-22T12:02:15;14.67;;;11.53;;
1591;SDS011;789;51.612;7.510;2023-02-22T12:05:16;17.70;;;11.50;;
1591;SDS011;789;51.612;7.510;2023-02-22T12:07:56;17.13;;;12.00;;
1591;SDS011;789;51.612;7.510;2023-02-22T12:10:38;13.20;;;11.40;;
1591;SDS011;789;51.612;7.510;2023-02-22T12:13:23;13.80;;;10.80;;
1591;SDS011;789;51.612;7.510;2023-02-22T12:16:05;17.13;;;10.73;;
1591;SDS011;789;51.612;7.510;2023-02-22T12:18:44;16.27;;;10.37;;
1591;SDS011;789;51.612;7.510;2023-02-22T12:21:21;10.77;;;9.30;;
1591;SDS011;789;51.612;7.510;2023-02-22T12:23:55;11.07;;;9.87;;
1591;SDS011;789;51.612;7.510;2023-02-22T12:26:28;11.20;;;9.80;;
1591;SDS011;789;51.612;7.510;2023-02-22T12:29:00;13.93;;;10.50;;
1591;SDS011;789;51.612;7.510;2023-02-22T12:31:35;11.03;;;9.87;;
1591;SDS011;789;51.612;7.510;2023-02-22T12:34:06;18.40;;;9.83;;
1591;SDS011;789;51.612;7.510;2023-02-22T12:36:40;11.90;;;9.17;;
1591;SDS011;789;51.612;7.510;2023-02-22T12:39:23;10.90;;;8.63;;
1591;SDS011;789;51.612;7.510;2023-02-22T12:41:58;12.50;;;8.50;;
1591;SDS011;789;51.612;7.510;2023-02-22T12:44:30;7.70;;;6.90;;
1591;SDS011;789;51.612;7.510;2023-02-22T12:47:02;10.80;;;8.13;;
1591;SDS011;789;51.612;7.510;2023-02-22T12:49:32;8.50;;;7.33;;
1591;SDS011;789;51.612;7.510;2023-02-22T12:52:07;42.13;;;10.57;;
1591;SDS011;789;51.612;7.510;2023-02-22T12:54:40;9.63;;;7.03;;
1591;SDS011;789;51.612;7.510;2023-02-22T12:57:13;12.40;;;6.83;;
1591;SDS011;789;51.612;7.510;2023-02-22T12:59:47;14.13;;;9.20;;
1591;SDS011;789;51.612;7.510;2023-02-22T13:02:18;11.30;;;5.93;;
1591;SDS011;789;51.612;7.510;2023-02-22T13:04:50;7.10;;;5.77;;
1591;SDS011;789;51.612;7.510;2023-02-22T13:07:22;11.87;;;6.63;;
1591;SDS011;789;51.612;7.510;2023-02-22T13:12:56;15.27;;;5.50;;
1591;SDS011;789;51.612;7.510;2023-02-22T13:15:29;11.17;;;6.00;;
1591;SDS011;789;51.612;7.510;2023-02-22T13:18:05;11.20;;;5.83;;
1591;SDS011;789;51.612;7.510;2023-02-22T13:20:36;19.23;;;7.40;;
1591;SDS011;789;51.612;7.510;2023-02-22T13:23:08;6.60;;;4.50;;
1591;SDS011;789;51.612;7.510;2023-02-22T13:25:44;10.47;;;5.03;;
1591;SDS011;789;51.612;7.510;2023-02-22T13:28:21;9.00;;;4.60;;
1591;SDS011;789;51.612;7.510;2023-02-22T13:30:59;16.30;;;11.10;;
1591;SDS011;789;51.612;7.510;2023-02-22T13:33:43;10.23;;;8.57;;
1591;SDS011;789;51.612;7.510;2023-02-22T13:36:26;11.60;;;6.30;;
1591;SDS011;789;51.612;7.510;2023-02-22T13:39:14;14.50;;;8.10;;
1591;SDS011;789;51.612;7.510;2023-02-22T13:42:10;15.10;;;5.43;;
1591;SDS011;789;51.612;7.510;2023-02-22T13:51:22;10.70;;;5.97;;
1591;SDS011;789;51.612;7.510;2023-02-22T13:54:08;14.20;;;8.10;;
1591;SDS011;789;51.612;7.510;2023-02-22T13:56:43;16.47;;;8.07;;
1591;SDS011;789;51.612;7.510;2023-02-22T13:59:20;7.30;;;5.27;;
1591;SDS011;789;51.612;7.510;2023-02-22T14:01:49;11.77;;;6.20;;
1591;SDS011;789;51.612;7.510;2023-02-22T14:10:36;15.40;;;10.00;;
1591;SDS011;789;51.612;7.510;2023-02-22T14:13:09;12.60;;;6.40;;
1591;SDS011;789;51.612;7.510;2023-02-22T14:15:41;11.03;;;6.60;;
1591;SDS011;789;51.612;7.510;2023-02-22T14:18:49;9.20;;;6.07;;
1591;SDS011;789;51.612;7.510;2023-02-22T14:21:30;5.27;;;4.17;;
1591;SDS011;789;51.612;7.510;2023-02-22T14:24:05;5.83;;;4.63;;
1591;SDS011;789;51.612;7.510;2023-02-22T14:26:35;12.50;;;4.73;;
1591;SDS011;789;51.612;7.510;2023-02-22T14:29:13;4.63;;;3.60;;
1591;SDS011;789;51.612;7.510;2023-02-22T14:31:54;6.63;;;4.17;;
1591;SDS011;789;51.612;7.510;2023-02-22T14:34:38;7.30;;;4.47;;
1591;SDS011;789;51.612;7.510;2023-02-22T14:37:09;8.13;;;4.80;;
1591;SDS011;789;51.612;7.510;2023-02-22T14:39:40;8.87;;;4.80;;
1591;SDS011;789;51.612;7.510;2023-02-22T14:42:11;7.37;;;4.67;;
1591;SDS011;789;51.612;7.510;2023-02-22T14:44:47;9.57;;;4.70;;
1591;SDS011;789;51.612;7.510;2023-02-22T14:47:20;6.93;;;4.10;;
1591;SDS011;789;51.612;7.510;2023-02-22T14:49:54;10.80;;;4.50;;
1591;SDS011;789;51.612;7.510;2023-02-22T14:52:26;6.67;;;4.50;;
1591;SDS011;789;51.612;7.510;2023-02-22T14:54:58;11.43;;;4.87;;
1591;SDS011;789;51.612;7.510;2023-02-22T14:57:33;8.53;;;4.93;;
1591;SDS011;789;51.612;7.510;2023-02-22T15:00:13;10.43;;;5.30;;
1591;SDS011;789;51.612;7.510;2023-02-22T15:02:47;13.97;;;5.47;;
1591;SDS011;789;51.612;7.510;2023-02-22T15:05:18;9.50;;;6.47;;
1591;SDS011;789;51.612;7.510;2023-02-22T15:07:55;10.53;;;6.40;;
1591;SDS011;789;51.612;7.510;2023-02-22T15:10:24;8.70;;;5.80;;
1591;SDS011;789;51.612;7.510;2023-02-22T15:12:54;11.03;;;6.83;;
1591;SDS011;789;51.612;7.510;2023-02-22T15:15:33;10.60;;;6.27;;
1591;SDS011;789;51.612;7.510;2023-02-22T15:18:00;10.50;;;5.30;;
1591;SDS011;789;51.612;7.510;2023-02-22T15:20:31;9.10;;;5.43;;
1591;SDS011;789;51.612;7.510;2023-02-22T15:23:00;10.33;;;6.20;;
1591;SDS011;789;51.612;7.510;2023-02-22T15:25:27;13.47;;;6.57;;
1591;SDS011;789;51.612;7.510;2023-02-22T15:27:59;9.10;;;6.23;;
1591;SDS011;789;51.612;7.510;2023-02-22T15:30:28;12.97;;;7.77;;
1591;SDS011;789;51.612;7.510;2023-02-22T15:33:08;9.30;;;6.43;;
1591;SDS011;789;51.612;7.510;2023-02-22T15:35:38;20.13;;;7.73;;
1591;SDS011;789;51.612;7.510;2023-02-22T15:38:05;7.37;;;5.23;;
1591;SDS011;789;51.612;7.510;2023-02-22T15:40:46;8.03;;;5.40;;
1591;SDS011;789;51.612;7.510;2023-02-22T15:43:23;7.17;;;5.67;;
1591;SDS011;789;51.612;7.510;2023-02-22T15:45:52;9.83;;;6.17;;